Time;durP1;ratioP1;P1;durP2;ratioP2;P2;SDS_P1;SDS_P2;PMS_P1;PMS_P2;Temp;Humidity;BMP_temperature;BMP_pressure;BME280_temperature;BME280_humidity;BME280_pressure;Samples;Min_cycle;Max_cycle;Signal;HPM_P1;HPM_P2
2022/08/19 00:01:10;;;;;;;18.35;14.23;;;21.90;87.10;;;21.30;63.19;96914.28;4994692;28;20402;-75
2022/08/19 00:03:38;;;;;;;20.70;15.55;;;21.90;88.20;;;21.32;62.87;96914.72;4994042;28;20949;-75
2022/08/19 00:06:04;;;;;;;23.23;15.98;;;21.90;88.00;;;21.31;62.73;96915.06;4994655;28;20406;-75
2022/08/19 00:08:30;;;;;;;21.27;14.50;;;21.90;87.60;;;21.33;63.42;96910.94;4994480;28;20538;-74
2022/08/19 00:10:57;;;;;;;20.85;14.48;;;21.90;89.00;;;21.29;62.71;96907.31;4994564;28;20425;-75
2022/08/19 00:13:23;;;;;;;21.00;15.30;;;21.90;87.90;;;21.27;63.42;96911.47;4994021;28;20398;-74
2022/08/19 00:15:49;;;;;;;20.50;14.55;;;21.90;88.80;;;21.29;63.59;96912.69;4994274;28;20501;-75
2022/08/19 00:18:14;;;;;;;21.13;15.25;;;21.90;89.30;;;21.26;63.19;96915.28;4994343;28;20414;-75
2022/08/19 00:20:42;;;;;;;21.40;15.60;;;21.90;88.90;;;21.27;63.45;96920.34;4994187;28;20413;-75
2022/08/19 00:23:08;;;;;;;24.38;15.15;;;21.90;89.00;;;21.22;63.76;96921.31;4993900;28;20422;-75
2022/08/19 00:25:34;;;;;;;20.45;15.02;;;21.90;89.40;;;21.25;63.59;96925.25;4994133;28;20402;-75
2022/08/19 00:27:59;;;;;;;20.80;15.77;;;21.90;89.40;;;21.27;63.20;96930.31;4994020;28;20787;-74
2022/08/19 00:30:27;;;;;;;18.88;14.43;;;21.90;88.90;;;21.21;63.44;96910.88;4994068;28;20425;-75
2022/08/19 00:32:54;;;;;;;21.15;15.02;;;21.80;88.90;;;21.20;62.92;96912.78;4993809;28;20426;-75
2022/08/19 00:35:21;;;;;;;20.42;14.73;;;21.80;88.30;;;21.21;63.69;96903.56;4993916;28;20406;-74
2022/08/19 00:37:49;;;;;;;21.52;15.45;;;21.80;89.30;;;21.18;63.58;96903.47;4994061;28;20410;-75
2022/08/19 00:40:16;;;;;;;24.02;16.20;;;21.80;89.40;;;21.21;63.43;96892.03;4994084;28;20407;-75
2022/08/19 00:42:44;;;;;;;22.37;15.20;;;21.80;89.30;;;21.14;63.31;96884.47;4993426;28;20444;-74
2022/08/19 00:45:14;;;;;;;19.83;14.90;;;21.80;88.90;;;21.12;63.67;96886.72;4976187;28;20903;-75
2022/08/19 00:47:40;;;;;;;20.00;14.80;;;21.80;89.80;;;21.16;63.84;96887.63;4993744;28;20456;-75
2022/08/19 00:50:09;;;;;;;21.25;15.55;;;21.80;90.10;;;21.13;62.94;96887.47;4993769;28;20406;-75
2022/08/19 00:52:40;;;;;;;22.90;15.15;;;21.80;89.00;;;21.12;63.32;96889.41;4993724;28;20780;-75
2022/08/19 00:55:11;;;;;;;22.13;16.20;;;21.70;89.20;;;21.10;63.87;96891.63;4993553;28;20974;-74
2022/08/19 00:57:40;;;;;;;23.60;15.80;;;21.70;89.60;;;21.08;63.99;96901.16;4975988;28;20411;-74
2022/08/19 01:00:12;;;;;;;22.23;15.95;;;21.70;90.10;;;21.06;63.76;96903.38;4993646;28;20892;-75
2022/08/19 01:02:38;;;;;;;19.60;15.15;;;21.70;90.00;;;21.06;64.27;96903.38;4993427;28;20513;-74
2022/08/19 01:05:11;;;;;;;20.50;15.45;;;21.70;90.40;;;21.05;64.58;96902.59;4975852;28;20434;-73
2022/08/19 01:07:40;;;;;;;22.80;16.05;;;21.70;90.40;;;21.07;64.01;96899.56;4993540;28;20398;-73
2022/08/19 01:10:12;;;;;;;20.65;15.40;;;21.70;90.20;;;21.07;64.09;96910.34;4976026;28;20843;-74
2022/08/19 01:12:39;;;;;;;21.15;15.85;;;21.70;90.40;;;21.05;64.21;96907.19;4993358;28;20406;-75
2022/08/19 01:15:09;;;;;;;19.77;15.25;;;21.70;90.30;;;21.03;64.67;96896.75;4993122;28;20402;-73
2022/08/19 01:17:38;;;;;;;20.38;15.40;;;21.70;90.50;;;21.01;64.54;96899.00;4993303;28;20534;-74
2022/08/19 01:20:07;;;;;;;19.73;14.85;;;21.70;90.60;;;21.00;65.04;96897.41;4993125;28;20406;-74
2022/08/19 01:22:41;;;;;;;26.17;16.98;;;21.60;91.00;;;21.03;63.98;96891.38;4993109;28;20945;-73
2022/08/19 01:25:08;;;;;;;23.48;16.70;;;21.60;90.40;;;20.99;64.03;96893.13;4992891;28;20407;-73
2022/08/19 01:27:39;;;;;;;20.88;16.17;;;21.60;90.30;;;21.01;64.67;96904.38;5003705;23;20436;-74
2022/08/19 01:30:08;;;;;;;22.27;16.58;;;21.60;90.70;;;20.99;64.19;96905.81;4972669;28;20822;-74
2022/08/19 01:32:34;;;;;;;22.73;16.63;;;21.60;90.40;;;20.97;64.30;96902.69;4973641;28;20494;-74
2022/08/19 01:35:02;;;;;;;21.55;15.00;;;21.60;90.60;;;20.92;64.63;96894.78;4973165;28;20546;-74
2022/08/19 01:37:29;;;;;;;20.67;15.45;;;21.50;90.70;;;20.98;64.73;96888.88;4976742;28;20493;-74
2022/08/19 01:39:56;;;;;;;22.38;16.20;;;21.50;91.00;;;20.95;64.41;96881.47;4992989;28;20774;-74
2022/08/19 01:42:22;;;;;;;20.63;16.33;;;21.50;90.80;;;20.91;64.77;96885.13;4992941;28;20510;-74
2022/08/19 01:44:48;;;;;;;25.05;17.15;;;21.50;91.00;;;20.95;64.51;96888.75;4992279;28;20402;-74
2022/08/19 01:47:15;;;;;;;24.95;17.05;;;21.50;90.90;;;20.92;64.46;96890.19;4992562;28;20398;-73
2022/08/19 01:49:42;;;;;;;23.00;16.95;;;21.50;90.80;;;20.90;64.78;96902.44;4992617;28;20403;-73
2022/08/19 01:52:07;;;;;;;24.30;17.65;;;21.50;91.10;;;20.91;64.86;96877.06;4992685;28;20502;-74
2022/08/19 01:54:33;;;;;;;23.33;16.70;;;21.50;91.20;;;20.88;65.05;96883.91;4992103;28;20403;-74
2022/08/19 01:57:11;;;;;;;20.98;16.08;;;21.50;91.20;;;20.85;65.56;96881.88;4992628;28;20761;-74
2022/08/19 01:59:39;;;;;;;23.02;17.27;;;21.50;91.50;;;20.85;64.99;96887.25;4992469;28;20877;-74
2022/08/19 02:02:07;;;;;;;26.75;17.60;;;21.50;91.30;;;20.83;64.67;96895.66;4992291;28;20418;-73
2022/08/19 02:04:33;;;;;;;24.05;16.45;;;21.50;91.20;;;20.85;65.74;96895.31;4991842;28;20402;-74
2022/08/19 02:06:59;;;;;;;22.55;16.60;;;21.40;91.80;;;20.82;65.98;96904.06;4992391;28;20950;-74
2022/08/19 02:09:26;;;;;;;24.17;17.57;;;21.50;92.00;;;20.84;66.21;96902.59;4991534;28;20402;-74
2022/08/19 02:11:51;;;;;;;23.23;16.80;;;21.50;92.40;;;20.83;66.33;96909.09;4992327;28;20414;-74
2022/08/19 02:14:19;;;;;;;25.35;17.90;;;21.50;92.30;;;20.85;65.73;96898.00;4991864;28;20402;-74
2022/08/19 02:16:45;;;;;;;24.30;18.10;;;21.50;92.00;;;20.82;65.90;96886.00;4992171;28;20445;-74
2022/08/19 02:19:11;;;;;;;27.77;18.10;;;21.50;92.20;;;20.78;65.93;96887.00;4992057;28;20671;-75
2022/08/19 02:21:37;;;;;;;29.75;20.25;;;21.40;92.00;;;20.76;65.14;96884.63;4992076;28;20409;-74
2022/08/19 02:24:04;;;;;;;27.67;19.05;;;21.40;91.70;;;20.74;65.57;96889.56;4991354;28;20429;-74
2022/08/19 02:26:31;;;;;;;30.00;20.70;;;21.40;91.90;;;20.73;65.31;96889.88;4991854;28;20410;-73
2022/08/19 02:28:57;;;;;;;27.00;18.67;;;21.40;91.90;;;20.70;66.18;96887.84;4991672;28;20418;-74
2022/08/19 02:31:27;;;;;;;26.75;18.83;;;21.30;92.40;;;20.69;65.93;96894.34;4991788;28;20402;-73
2022/08/19 02:33:55;;;;;;;34.08;21.05;;;21.30;92.40;;;20.68;65.73;96893.53;4991316;28;21026;-73
2022/08/19 02:36:21;;;;;;;29.58;20.48;;;21.30;92.30;;;20.63;66.61;96892.97;4991846;28;20410;-73
2022/08/19 02:38:48;;;;;;;28.55;20.55;;;21.30;92.80;;;20.63;66.88;96891.06;4991678;28;20415;-74
2022/08/19 02:41:18;;;;;;;26.23;18.77;;;21.30;93.00;;;20.63;67.24;96898.34;4991669;28;20402;-73
2022/08/19 02:43:43;;;;;;;27.20;20.58;;;21.30;93.40;;;20.62;66.56;96899.44;4991055;28;20425;-75
2022/08/19 02:46:17;;;;;;;31.92;21.15;;;21.30;93.00;;;20.61;66.12;96893.28;4991520;28;20406;-74
2022/08/19 02:48:45;;;;;;;25.67;18.98;;;21.20;93.10;;;20.58;66.79;96885.88;4991527;28;20417;-75
2022/08/19 02:51:17;;;;;;;32.15;21.83;;;21.20;93.20;;;20.58;66.44;96891.25;4991585;28;20410;-75
2022/08/19 02:53:44;;;;;;;26.35;19.15;;;21.20;93.00;;;20.55;67.07;96891.13;4990912;28;20395;-73
2022/08/19 02:56:10;;;;;;;29.00;19.60;;;21.20;93.40;;;20.55;67.34;96888.44;4991461;28;20402;-72
2022/08/19 02:58:36;;;;;;;31.08;20.85;;;21.20;93.90;;;20.54;67.11;96890.31;4991409;28;20411;-72
2022/08/19 03:01:02;;;;;;;26.90;18.15;;;21.20;93.70;;;20.52;67.29;96887.19;4991326;28;20429;-74
2022/08/19 03:03:28;;;;;;;29.52;20.10;;;21.20;93.90;;;20.48;67.23;96879.00;4990672;28;20415;-74
2022/08/19 03:06:08;;;;;;;30.67;21.83;;;21.10;93.80;;;20.49;67.96;96879.78;4991242;28;20410;-72
2022/08/19 03:08:34;;;;;;;30.58;21.45;;;21.10;94.40;;;20.49;67.59;96882.47;4991079;28;20847;-75
2022/08/19 03:11:00;;;;;;;30.15;21.48;;;21.10;94.40;;;20.45;67.71;96885.00;4973808;28;20820;-72
2022/08/19 03:13:27;;;;;;;32.05;22.00;;;21.10;94.40;;;20.44;67.96;96894.22;4990743;28;20414;-72
2022/08/19 03:15:53;;;;;;;30.83;21.27;;;21.10;94.70;;;20.40;67.94;96890.59;4991094;28;20819;-73
2022/08/19 03:18:19;;;;;;;33.20;22.75;;;21.10;94.60;;;20.39;68.24;96899.75;4991142;28;20414;-73
2022/08/19 03:20:50;;;;;;;31.15;22.02;;;21.10;94.80;;;20.37;67.65;96901.97;4991115;28;20457;-73
2022/08/19 03:23:17;;;;;;;31.15;21.20;;;21.00;94.60;;;20.34;68.94;96905.34;4990636;28;20422;-73
2022/08/19 03:25:47;;;;;;;28.58;20.90;;;21.00;95.50;;;20.36;68.94;96900.44;4991022;28;20411;-73
2022/08/19 03:28:14;;;;;;;27.23;20.38;;;21.00;95.70;;;20.35;68.82;96893.47;4990908;28;20790;-73
2022/08/19 03:30:43;;;;;;;32.03;21.63;;;21.00;95.70;;;20.38;68.88;96895.50;4973538;28;20888;-73
2022/08/19 03:33:13;;;;;;;29.25;21.33;;;21.00;95.80;;;20.37;68.90;96885.09;4990679;28;20498;-73
2022/08/19 03:35:39;;;;;;;30.23;20.98;;;21.00;95.80;;;20.34;69.29;96899.97;4991063;28;20425;-73
2022/08/19 03:38:06;;;;;;;29.43;21.93;;;21.00;96.10;;;20.32;68.76;96899.47;4990834;28;20407;-73
2022/08/19 03:40:37;;;;;;;35.17;23.70;;;21.00;95.90;;;20.32;68.77;96898.66;4990970;28;20434;-73
2022/08/19 03:43:03;;;;;;;29.67;21.98;;;21.00;96.00;;;20.30;69.03;96900.88;4990555;28;20418;-73
2022/08/19 03:45:29;;;;;;;34.08;23.85;;;20.90;96.20;;;20.28;68.61;96903.13;4990757;28;20873;-73
2022/08/19 03:47:55;;;;;;;34.75;23.15;;;21.00;96.00;;;20.25;68.89;96895.69;4990805;28;20453;-73
2022/08/19 03:50:21;;;;;;;37.90;25.13;;;20.90;96.20;;;20.24;68.64;96896.81;4990966;28;21129;-74
2022/08/19 03:52:50;;;;;;;36.53;24.77;;;20.90;96.00;;;20.20;68.52;96891.31;4990417;28;20422;-73
2022/08/19 03:55:16;;;;;;;35.83;25.02;;;20.90;96.00;;;20.17;69.04;96891.16;4990715;28;20402;-73
2022/08/19 03:57:45;;;;;;;35.20;24.50;;;20.80;96.40;;;20.13;69.12;96901.78;4990686;28;20473;-74
2022/08/19 04:00:13;;;;;;;35.35;24.73;;;20.80;96.50;;;20.14;69.08;96906.06;4990710;28;20437;-74
2022/08/19 04:02:39;;;;;;;35.38;23.98;;;20.80;96.50;;;20.14;69.47;96905.25;4990584;28;20441;-74
2022/08/19 04:05:07;;;;;;;41.70;27.13;;;20.70;96.90;;;20.10;68.80;96900.53;4990524;28;20967;-73
2022/08/19 04:07:34;;;;;;;37.37;26.30;;;20.80;96.40;;;20.10;69.30;96908.59;4990614;28;20402;-74
2022/08/19 04:10:00;;;;;;;39.80;26.15;;;20.70;96.70;;;20.03;68.86;96904.81;4973275;28;20453;-73
2022/08/19 04:12:26;;;;;;;32.80;24.20;;;20.70;96.40;;;20.04;69.97;96904.50;4990572;28;20398;-73
2022/08/19 04:14:54;;;;;;;37.35;26.63;;;20.70;97.50;;;19.99;69.36;96907.38;4990105;28;20413;-73
2022/08/19 04:17:20;;;;;;;39.33;25.67;;;20.70;97.00;;;19.99;69.65;96915.44;4990500;28;20413;-74
2022/08/19 04:19:45;;;;;;;37.42;27.23;;;20.70;97.30;;;19.97;69.50;96911.50;4973092;28;20410;-74
2022/08/19 04:22:11;;;;;;;38.10;25.08;;;20.60;97.30;;;19.98;70.25;96900.44;4990532;28;20757;-73
2022/08/19 04:24:37;;;;;;;44.00;27.10;;;20.70;98.00;;;19.99;69.49;96903.91;4990179;28;20413;-74
2022/08/19 04:27:05;;;;;;;35.20;24.97;;;20.60;97.50;;;19.96;69.69;96905.34;4990797;28;20478;-73
2022/08/19 04:29:32;;;;;;;45.70;28.00;;;20.60;97.70;;;19.95;69.61;96903.75;4990431;28;20911;-73
2022/08/19 04:31:59;;;;;;;44.33;29.92;;;20.60;97.60;;;19.92;69.39;96904.38;4990461;28;20417;-73
2022/08/19 04:34:29;;;;;;;36.45;25.42;;;20.60;97.40;;;19.94;70.28;96898.69;4992830;28;20413;-73
2022/08/19 04:36:58;;;;;;;38.33;26.00;;;20.60;98.30;;;19.94;69.79;96896.81;4993944;28;20919;-73
2022/08/19 04:42:38;;;;;;;39.53;27.42;;;20.60;97.80;;;19.90;69.77;96895.09;4993865;28;20410;-74
2022/08/19 04:44:59;;;;;;;35.80;26.13;;;20.60;97.80;;;19.89;69.87;96904.25;4993421;28;20409;-73
2022/08/19 04:47:27;;;;;;;42.33;27.58;;;20.50;98.10;;;19.87;69.72;96899.22;4993684;28;20402;-73
2022/08/19 04:49:53;;;;;;;40.10;28.75;;;20.50;98.00;;;19.86;70.12;96908.38;4993765;28;20541;-73
2022/08/19 04:52:19;;;;;;;41.97;28.67;;;20.50;98.30;;;19.87;70.19;96906.47;4993718;28;20402;-73
2022/08/19 04:54:45;;;;;;;42.00;27.73;;;20.50;98.60;;;19.87;70.34;96898.41;4993077;28;20974;-73
2022/08/19 04:57:11;;;;;;;39.90;26.80;;;20.50;98.80;;;19.86;70.47;96905.69;4993562;28;20409;-73
2022/08/19 04:59:38;;;;;;;38.93;25.57;;;20.50;98.90;;;19.91;70.95;96915.47;4993671;28;20402;-73
2022/08/19 05:02:07;;;;;;;36.58;26.15;;;20.50;99.30;;;19.87;70.46;96912.63;4993532;28;20434;-73
2022/08/19 05:04:35;;;;;;;40.00;27.23;;;20.50;98.90;;;19.88;70.22;96914.22;4992904;28;20395;-73
2022/08/19 05:07:01;;;;;;;40.13;27.33;;;20.60;98.80;;;19.88;70.14;96916.91;4993435;28;20469;-72
2022/08/19 05:09:27;;;;;;;35.75;24.92;;;20.50;98.70;;;19.87;70.28;96911.84;4993399;28;20430;-72
2022/08/19 05:11:53;;;;;;;40.17;26.38;;;20.50;99.00;;;19.89;70.48;96917.69;4993287;28;20407;-73
2022/08/19 05:14:20;;;;;;;41.80;26.40;;;20.50;99.20;;;19.88;70.70;96916.13;4992677;28;20488;-73
2022/08/19 05:16:46;;;;;;;37.33;27.17;;;20.50;99.30;;;19.90;70.24;96924.66;4993234;28;20492;-73
2022/08/19 05:24:44;;;;;;;38.22;25.40;;;20.50;99.00;;;19.87;70.14;96941.41;4992720;28;20464;-73
2022/08/19 05:27:10;;;;;;;42.38;27.40;;;20.50;99.10;;;19.84;70.19;96968.91;4992948;28;20407;-73
2022/08/19 05:29:36;;;;;;;35.97;26.45;;;20.50;98.90;;;19.86;70.33;96974.72;4993104;28;20422;-73
2022/08/19 05:32:08;;;;;;;30.80;22.50;;;20.50;99.30;;;19.83;70.75;96986.13;4993025;28;20414;-73
2022/08/19 05:34:35;;;;;;;33.42;23.67;;;20.50;99.60;;;19.85;70.50;96989.28;4992595;28;20410;-74
2022/08/19 05:37:02;;;;;;;35.47;25.13;;;20.50;99.90;;;19.86;70.95;96994.31;4992970;28;20402;-73
2022/08/19 05:39:31;;;;;;;36.70;25.42;;;20.50;99.90;;;19.93;71.10;97005.38;4992628;28;20410;-73
2022/08/19 05:42:00;;;;;;;36.23;26.40;;;20.60;99.90;;;19.97;69.94;97008.22;4992680;28;20398;-74
2022/08/19 05:44:31;;;;;;;34.53;24.57;;;20.60;99.30;;;20.02;70.16;97011.50;4991046;28;20794;-73
2022/08/19 05:46:58;;;;;;;33.42;24.40;;;20.70;99.40;;;20.02;69.98;97000.75;4992804;28;20410;-73
2022/08/19 05:49:25;;;;;;;37.83;25.55;;;20.70;99.20;;;19.99;69.89;96996.06;4992475;28;20517;-73
2022/08/19 05:51:51;;;;;;;36.05;24.15;;;20.70;99.20;;;19.97;69.85;96989.41;4992588;28;20403;-73
2022/08/19 05:54:19;;;;;;;34.40;24.67;;;20.60;99.00;;;19.95;69.97;96994.31;4992099;28;20453;-72
2022/08/19 05:56:47;;;;;;;37.00;25.77;;;20.60;99.20;;;19.92;69.97;96997.66;4992563;28;20900;-72
2022/08/19 05:59:15;;;;;;;35.63;24.25;;;20.60;99.20;;;19.89;70.09;96999.06;4992390;28;20406;-72
2022/08/19 06:01:45;;;;;;;33.25;23.08;;;20.60;99.30;;;19.87;70.44;96993.22;4992462;28;20438;-73
2022/08/19 06:04:13;;;;;;;38.15;25.90;;;20.60;99.60;;;19.87;70.10;96992.44;4991880;28;20421;-73
2022/08/19 06:06:40;;;;;;;34.05;24.92;;;20.50;99.20;;;19.92;70.31;96995.72;4992445;28;20494;-72
2022/08/19 06:09:07;;;;;;;35.33;25.10;;;20.60;99.60;;;19.89;70.32;96995.59;4974756;28;20399;-73
2022/08/19 06:11:39;;;;;;;35.72;25.13;;;20.50;99.60;;;19.90;70.76;96999.88;4992147;28;20418;-73
2022/08/19 06:14:09;;;;;;;34.72;24.98;;;20.60;99.90;;;19.92;70.52;97003.78;4991693;28;20402;-73
2022/08/19 06:16:35;;;;;;;37.43;24.47;;;20.60;99.80;;;19.91;70.62;96996.88;4974676;28;20402;-73
2022/08/19 06:19:06;;;;;;;30.48;21.80;;;20.60;99.90;;;19.92;70.92;97003.78;4992243;28;21044;-73
2022/08/19 06:21:32;;;;;;;34.53;25.25;;;20.60;99.90;;;19.91;70.58;96996.88;4992008;28;20557;-73
2022/08/19 06:23:59;;;;;;;35.13;24.20;;;20.60;99.90;;;19.92;70.76;96989.59;4991319;28;20515;-73
2022/08/19 06:26:26;;;;;;;35.10;24.40;;;20.60;99.90;;;19.93;70.56;96993.84;4991761;28;20419;-73
2022/08/19 06:28:53;;;;;;;36.45;24.88;;;20.60;99.90;;;19.92;70.76;96994.97;4991700;28;20454;-73
2022/08/19 06:31:23;;;;;;;37.20;25.33;;;20.50;99.90;;;19.91;70.64;96996.06;4991850;28;20498;-74
2022/08/19 06:33:50;;;;;;;36.10;25.67;;;20.60;99.90;;;19.96;71.30;96994.00;4991260;28;20406;-74
2022/08/19 06:36:19;;;;;;;35.35;24.63;;;20.60;99.90;;;19.95;70.68;96997.00;4991746;28;20414;-73
2022/08/19 06:38:45;;;;;;;35.30;23.97;;;20.60;99.90;;;19.94;70.86;96996.22;4991680;28;20888;-73
2022/08/19 06:41:11;;;;;;;31.05;22.38;;;20.60;99.90;;;19.94;71.58;97006.16;4991760;28;20418;-73
2022/08/19 06:43:37;;;;;;;31.23;23.55;;;20.60;99.90;;;19.93;71.17;97000.00;4990978;28;20419;-73
2022/08/19 06:46:11;;;;;;;29.00;22.88;;;20.60;99.90;;;19.93;71.09;97002.69;4991660;28;20418;-73
2022/08/19 06:48:37;;;;;;;32.70;23.60;;;20.60;99.90;;;19.95;71.18;97010.44;4991613;28;20413;-73
2022/08/19 06:51:05;;;;;;;33.22;23.95;;;20.60;99.90;;;19.96;71.47;97010.13;4991529;28;20418;-73
2022/08/19 06:53:31;;;;;;;37.72;24.33;;;20.60;99.90;;;19.98;71.35;97012.50;4991032;28;20403;-73
2022/08/19 06:56:02;;;;;;;35.63;24.58;;;20.60;99.90;;;19.97;71.39;97009.00;4991122;28;20410;-73
2022/08/19 06:58:31;;;;;;;34.67;23.88;;;20.60;99.90;;;19.94;72.00;97006.94;4991301;28;20505;-73
2022/08/19 07:01:00;;;;;;;35.78;25.20;;;20.60;99.90;;;19.98;72.29;97012.50;4991484;28;20410;-73
2022/08/19 07:03:30;;;;;;;35.88;25.98;;;20.60;99.90;;;19.99;72.92;97016.75;4990757;28;20509;-73
2022/08/19 07:05:57;;;;;;;35.33;25.30;;;20.60;99.90;;;19.97;73.30;97006.31;4991416;28;20398;-73
2022/08/19 07:08:26;;;;;;;34.13;25.23;;;20.60;99.90;;;19.98;74.55;97017.84;4991303;28;20803;-73
2022/08/19 07:10:53;;;;;;;31.77;24.17;;;20.60;99.90;;;19.94;75.19;97009.63;4991337;28;20434;-74
2022/08/19 07:13:19;;;;;;;36.67;24.60;;;20.60;99.90;;;19.94;75.75;97017.69;4990817;28;20444;-74
2022/08/19 07:15:46;;;;;;;33.03;23.87;;;20.60;99.90;;;19.96;76.01;97014.69;4991163;28;20525;-74
2022/08/19 07:18:12;;;;;;;32.40;23.92;;;20.60;99.90;;;19.90;75.77;97016.78;4991242;28;20403;-73
2022/08/19 07:20:41;;;;;;;34.35;25.05;;;20.60;99.90;;;19.88;75.46;97021.66;4991220;28;20477;-73
2022/08/19 07:23:07;;;;;;;36.10;26.55;;;20.50;99.90;;;19.87;74.81;97020.09;4990587;28;20445;-74
2022/08/19 07:25:35;;;;;;;35.45;25.60;;;20.50;99.90;;;19.79;74.68;97028.16;4990864;28;20403;-74
2022/08/19 07:28:01;;;;;;;33.10;24.33;;;20.50;99.90;;;19.78;75.56;97022.00;5001659;23;20432;-76
2022/08/19 07:30:27;;;;;;;35.15;25.25;;;20.50;99.90;;;19.75;75.85;97022.66;4970658;28;20424;-76
2022/08/19 07:32:53;;;;;;;32.83;23.92;;;20.40;99.90;;;19.73;76.33;97018.69;4971210;28;20436;-76
2022/08/19 07:35:20;;;;;;;32.47;24.35;;;20.40;99.90;;;19.71;76.00;97025.16;4971447;28;20404;-76
2022/08/19 07:37:47;;;;;;;31.63;22.53;;;20.40;99.90;;;19.73;76.52;97024.84;4973964;28;20410;-76
2022/08/19 07:40:13;;;;;;;32.78;23.67;;;20.40;99.90;;;19.75;76.63;97033.38;4991005;28;20407;-76
2022/08/19 07:42:40;;;;;;;32.05;22.85;;;20.40;99.90;;;19.76;77.09;97026.91;4990619;28;20413;-76
2022/08/19 07:45:09;;;;;;;31.95;22.75;;;20.40;99.90;;;19.78;76.55;97026.56;4990709;28;20533;-76
2022/08/19 07:47:35;;;;;;;32.83;24.40;;;20.40;99.90;;;19.89;75.71;97025.16;4991010;28;20800;-76
2022/08/19 07:50:04;;;;;;;33.17;24.85;;;20.50;99.90;;;19.84;74.55;97019.94;4990872;28;20923;-76
2022/08/19 07:52:30;;;;;;;30.30;22.25;;;20.50;99.90;;;19.84;74.80;97022.63;4990952;28;20923;-76
2022/08/19 07:54:59;;;;;;;33.75;23.70;;;20.50;99.90;;;19.86;74.84;97031.16;4990309;28;20410;-75
2022/08/19 07:57:25;;;;;;;33.63;24.08;;;20.50;99.90;;;19.84;74.14;97030.69;4990903;28;20493;-76
2022/08/19 07:59:51;;;;;;;28.45;22.33;;;20.50;99.90;;;19.87;74.58;97024.66;4990704;28;20460;-76
2022/08/19 08:02:17;;;;;;;34.17;24.33;;;20.50;99.90;;;19.92;73.51;97032.56;4990791;28;20410;-76
2022/08/19 08:10:14;;;;;;;29.43;22.93;;;20.50;99.90;;;19.90;72.67;97032.09;4994474;28;20574;-76
2022/08/19 08:12:41;;;;;;;33.00;21.95;;;20.50;99.90;;;19.85;73.40;97034.94;4994139;28;20414;-75
2022/08/19 08:15:12;;;;;;;32.35;22.52;;;20.50;99.90;;;19.83;73.32;97031.81;4994125;28;20958;-77
2022/08/19 08:17:39;;;;;;;27.60;19.83;;;20.50;99.90;;;19.82;73.68;97033.69;4994140;28;20390;-76
2022/08/19 08:20:07;;;;;;;32.58;21.35;;;20.50;99.90;;;19.83;73.58;97037.97;4994194;28;20493;-76
2022/08/19 08:25:22;;;;;;;30.10;22.08;;;20.50;99.90;;;19.83;73.00;97042.53;4994306;28;20426;-76
2022/08/19 08:27:49;;;;;;;32.28;21.65;;;20.50;99.90;;;19.85;73.01;97045.69;4993934;28;20402;-76
2022/08/19 08:30:21;;;;;;;27.77;21.55;;;20.50;99.90;;;19.84;72.96;97046.81;4994176;28;20827;-75
2022/08/19 08:32:47;;;;;;;27.15;20.73;;;20.50;99.90;;;19.85;72.88;97046.47;4993552;28;20417;-76
2022/08/19 08:35:16;;;;;;;30.58;21.08;;;20.50;99.90;;;19.86;72.32;97041.88;4993850;28;20399;-76
2022/08/19 08:37:43;;;;;;;26.90;20.77;;;20.50;99.90;;;19.90;72.79;97043.63;4993934;28;20418;-76
2022/08/19 08:40:20;;;;;;;30.73;21.90;;;20.60;99.90;;;19.91;72.55;97053.28;4994021;28;20465;-75
2022/08/19 08:43:00;;;;;;;30.35;21.88;;;20.50;99.90;;;19.91;72.59;97039.84;4993267;28;20915;-76
2022/08/19 08:45:26;;;;;;;27.33;19.35;;;20.50;99.90;;;19.93;73.10;97048.34;4993715;28;20406;-75
2022/08/19 08:47:57;;;;;;;29.65;20.65;;;20.60;99.90;;;19.95;72.31;97048.03;4993663;28;20417;-76
2022/08/19 08:50:32;;;;;;;28.27;20.45;;;20.60;99.90;;;19.96;72.34;97042.34;4993693;28;20417;-76
2022/08/19 08:52:58;;;;;;;27.67;19.60;;;20.60;99.90;;;19.98;72.75;97042.84;4993304;28;20406;-76
2022/08/19 08:55:28;;;;;;;34.55;22.70;;;20.60;99.90;;;20.02;72.70;97040.28;4993542;28;20442;-75
2022/08/19 08:58:00;;;;;;;29.60;21.30;;;20.70;99.90;;;20.02;73.14;97041.06;4993403;28;20407;-75
2022/08/19 09:00:30;;;;;;;28.13;21.08;;;20.70;99.90;;;20.07;73.58;97043.56;4993565;28;20876;-75
2022/08/19 09:02:59;;;;;;;26.35;19.42;;;20.70;99.90;;;20.08;73.06;97047.84;4993052;28;21008;-75
2022/08/19 09:05:38;;;;;;;30.73;20.45;;;20.70;99.90;;;20.10;73.34;97050.22;4993219;28;20444;-76
2022/08/19 09:08:13;;;;;;;33.33;20.75;;;20.70;99.90;;;20.13;73.64;97051.50;4993385;28;20809;-75
2022/08/19 09:10:48;;;;;;;28.45;20.98;;;20.70;99.90;;;20.13;73.51;97049.59;4993380;28;20490;-76
2022/08/19 09:13:27;;;;;;;26.90;20.27;;;20.70;99.90;;;20.13;73.30;97041.53;4975570;28;20817;-76
2022/08/19 09:16:01;;;;;;;26.50;19.55;;;20.80;99.90;;;20.23;72.97;97045.75;4993365;28;20414;-76
2022/08/19 09:18:41;;;;;;;29.20;20.30;;;20.80;99.90;;;20.24;72.53;97047.31;4993019;28;20788;-75
2022/08/19 09:21:08;;;;;;;27.23;19.58;;;20.80;99.90;;;20.24;72.28;97056.19;4993162;28;20978;-75
2022/08/19 09:23:34;;;;;;;26.42;19.15;;;20.80;99.90;;;20.33;72.49;97050.78;4992731;28;20419;-76
2022/08/19 09:26:09;;;;;;;25.65;18.33;;;20.90;99.90;;;20.32;72.20;97055.38;4993260;28;20430;-76
2022/08/19 09:28:36;;;;;;;30.70;19.60;;;21.00;99.90;;;20.36;71.60;97060.94;4992968;28;20992;-76
2022/08/19 09:31:03;;;;;;;27.75;19.60;;;21.00;99.90;;;20.36;71.52;97060.94;4993020;28;20399;-75
2022/08/19 09:33:28;;;;;;;27.08;17.95;;;21.00;99.90;;;20.36;71.51;97052.88;4992486;28;20405;-76
2022/08/19 09:36:04;;;;;;;28.97;18.20;;;21.00;99.90;;;20.46;71.46;97058.66;4992761;28;20490;-75
2022/08/19 09:38:29;;;;;;;37.40;19.33;;;21.10;99.90;;;20.49;71.88;97054.56;4992690;28;20792;-76
2022/08/19 09:40:55;;;;;;;27.57;18.70;;;21.10;99.90;;;20.52;71.67;97062.00;4992839;28;20502;-75
2022/08/19 09:43:23;;;;;;;26.97;18.27;;;21.10;99.90;;;20.54;71.24;97050.88;4992358;28;20422;-76
2022/08/19 09:45:48;;;;;;;22.80;17.00;;;21.20;99.90;;;20.58;71.44;97051.84;4992700;28;20403;-75
2022/08/19 09:48:14;;;;;;;20.10;15.48;;;21.20;99.90;;;20.62;71.70;97058.91;4992964;28;20417;-76
2022/08/19 09:50:40;;;;;;;27.52;17.50;;;21.20;99.90;;;20.66;71.05;97061.75;4992586;28;20506;-76
2022/08/19 09:53:07;;;;;;;24.60;15.95;;;21.30;99.90;;;20.69;71.15;97063.78;4992364;28;20457;-75
2022/08/19 09:55:33;;;;;;;21.43;15.40;;;21.30;99.90;;;20.71;71.53;97065.06;4992444;28;20409;-76
2022/08/19 09:58:00;;;;;;;25.30;15.17;;;21.30;99.90;;;20.72;71.53;97068.53;4992551;28;20411;-76
2022/08/19 10:00:28;;;;;;;26.00;14.88;;;21.30;99.90;;;20.72;71.41;97068.53;4992558;28;20423;-75
2022/08/19 10:02:54;;;;;;;19.35;14.50;;;21.30;99.90;;;20.73;71.43;97065.53;4991975;28;20426;-76
2022/08/19 10:08:04;;;;;;;22.13;15.45;;;21.30;99.90;;;20.77;70.41;97060.28;4992226;28;20414;-75
2022/08/19 10:10:35;;;;;;;17.92;13.52;;;21.30;99.90;;;20.76;71.00;97064.84;4992177;28;20402;-76
2022/08/19 10:13:01;;;;;;;25.08;15.88;;;21.40;99.90;;;20.78;70.55;97057.25;4991845;28;20880;-76
2022/08/19 10:15:28;;;;;;;21.67;15.37;;;21.40;99.90;;;20.79;70.58;97060.75;4992146;28;20425;-76
2022/08/19 10:17:54;;;;;;;21.20;14.02;;;21.40;99.90;;;20.80;70.27;97063.13;4992071;28;20433;-75
2022/08/19 10:20:21;;;;;;;20.00;14.32;;;21.40;99.90;;;20.80;70.17;97065.00;4992112;28;20888;-75
2022/08/19 10:22:48;;;;;;;20.08;13.30;;;21.40;99.90;;;20.81;70.69;97059.31;4991606;28;20477;-75
2022/08/19 10:25:16;;;;;;;19.77;14.02;;;21.40;99.90;;;20.80;70.62;97065.00;4992069;28;20421;-75
2022/08/19 10:27:42;;;;;;;23.38;14.57;;;21.40;99.90;;;20.82;70.45;97065.47;4991843;28;20413;-75